Time;durP1;ratioP1;P1;durP2;ratioP2;P2;SDS_P1;SDS_P2;PMS_P1;PMS_P2;Temp;Humidity;BMP_temperature;BMP_pressure;BME280_temperature;BME280_humidity;BME280_pressure;Samples;Min_cycle;Max_cycle;Signal;HPM_P1;HPM_P2
2023/12/28 00:01:47;;;;;;;2.60;1.70;;;10.70;99.90;;;;;;5006322;28;20022;-60
2023/12/28 00:04:13;;;;;;;3.83;1.80;;;10.70;99.90;;;;;;5008892;28;20049;-59
2023/12/28 00:06:38;;;;;;;2.95;1.70;;;10.60;99.90;;;;;;5005518;28;20034;-59
2023/12/28 00:09:04;;;;;;;3.42;1.95;;;10.60;99.90;;;;;;5006330;28;20029;-60
2023/12/28 00:11:29;;;;;;;6.20;1.80;;;10.60;99.90;;;;;;5006868;28;20022;-62
2023/12/28 00:13:55;;;;;;;7.18;1.98;;;10.60;99.90;;;;;;5006165;28;20033;-60
2023/12/28 00:16:20;;;;;;;5.80;1.60;;;10.60;99.90;;;;;;5009421;28;20037;-62
2023/12/28 00:18:46;;;;;;;5.25;1.67;;;10.50;99.90;;;;;;5008618;28;20022;-62
2023/12/28 00:21:11;;;;;;;3.30;1.55;;;10.50;99.90;;;;;;5008147;28;20648;-60
2023/12/28 00:23:37;;;;;;;6.53;1.83;;;10.50;99.90;;;;;;5008450;28;20030;-59
2023/12/28 00:26:02;;;;;;;3.55;1.98;;;10.40;99.90;;;;;;5007732;28;20038;-59
2023/12/28 00:28:28;;;;;;;4.25;2.15;;;10.40;99.90;;;;;;5009006;28;20081;-57
2023/12/28 00:30:53;;;;;;;2.90;1.58;;;10.40;99.90;;;;;;5008463;28;20451;-59
2023/12/28 00:33:19;;;;;;;7.88;1.95;;;10.30;99.90;;;;;;5008881;28;20042;-57
2023/12/28 00:35:45;;;;;;;4.80;1.73;;;10.40;99.90;;;;;;5003215;28;20113;-61
2023/12/28 00:38:10;;;;;;;3.35;1.30;;;10.40;99.90;;;;;;5005937;28;20096;-58
2023/12/28 00:40:35;;;;;;;4.63;1.95;;;10.40;99.90;;;;;;5009153;28;20038;-60
2023/12/28 00:43:01;;;;;;;8.80;1.85;;;10.40;99.90;;;;;;5007360;28;20144;-58
2023/12/28 00:45:26;;;;;;;4.93;1.90;;;10.40;99.90;;;;;;5007153;28;20025;-59
2023/12/28 00:47:55;;;;;;;4.28;1.85;;;10.50;99.90;;;;;;5006990;28;20018;-57
2023/12/28 00:50:21;;;;;;;3.28;1.80;;;10.40;99.90;;;;;;5010917;28;20106;-60
2023/12/28 00:52:46;;;;;;;6.05;1.83;;;10.40;99.90;;;;;;5011854;28;20117;-61
2023/12/28 00:55:12;;;;;;;4.63;2.00;;;10.40;99.90;;;;;;5012756;28;20076;-61
2023/12/28 00:57:37;;;;;;;3.05;1.50;;;10.40;99.90;;;;;;5013289;28;20034;-61
2023/12/28 01:00:04;;;;;;;5.43;2.85;;;10.40;99.90;;;;;;5012146;28;20541;-61
2023/12/28 01:02:29;;;;;;;5.03;1.70;;;10.30;99.90;;;;;;5010919;28;20452;-60
2023/12/28 01:04:55;;;;;;;3.85;1.52;;;10.30;99.90;;;;;;5011752;28;20033;-60
2023/12/28 01:07:20;;;;;;;4.10;2.13;;;10.30;99.90;;;;;;5009894;28;20021;-58
2023/12/28 01:09:46;;;;;;;2.67;1.83;;;10.30;99.90;;;;;;5012815;28;20026;-60
2023/12/28 01:12:11;;;;;;;3.88;1.63;;;10.30;99.90;;;;;;5012238;28;20042;-61
2023/12/28 01:14:37;;;;;;;3.45;1.58;;;10.30;99.90;;;;;;5010780;28;20026;-59
2023/12/28 01:17:03;;;;;;;4.50;1.73;;;10.30;99.90;;;;;;5012602;28;20026;-61
2023/12/28 01:19:28;;;;;;;2.25;1.38;;;10.30;99.90;;;;;;5011311;28;20105;-60
2023/12/28 01:21:54;;;;;;;6.85;1.58;;;10.30;99.90;;;;;;5010773;28;20034;-61
2023/12/28 01:24:19;;;;;;;3.90;1.70;;;10.30;99.90;;;;;;5011158;28;20088;-59
2023/12/28 01:26:45;;;;;;;4.75;1.50;;;10.40;99.90;;;;;;5009010;28;20022;-60
2023/12/28 01:29:10;;;;;;;3.42;1.33;;;10.30;99.90;;;;;;5011789;28;20025;-60
2023/12/28 01:31:36;;;;;;;1.73;1.25;;;10.30;99.90;;;;;;5009206;28;20496;-60
2023/12/28 01:34:01;;;;;;;2.50;1.55;;;10.30;99.90;;;;;;5010944;28;20030;-60
2023/12/28 01:36:29;;;;;;;2.63;1.23;;;10.20;99.90;;;;;;5011410;28;20068;-62
2023/12/28 01:38:54;;;;;;;1.20;0.93;;;10.20;99.90;;;;;;5012437;28;20060;-61
2023/12/28 01:41:20;;;;;;;2.25;1.38;;;10.20;99.90;;;;;;5011583;28;20018;-60
2023/12/28 01:43:45;;;;;;;1.35;1.25;;;10.20;99.90;;;;;;5008197;28;20045;-59
2023/12/28 01:46:17;;;;;;;5.13;1.08;;;10.20;99.90;;;;;;5010548;28;20029;-60
2023/12/28 01:48:45;;;;;;;4.65;1.40;;;10.20;99.90;;;;;;5005919;28;20030;-60
2023/12/28 01:51:12;;;;;;;1.70;1.13;;;10.10;99.90;;;;;;5011362;28;20095;-60
2023/12/28 01:53:38;;;;;;;1.27;1.00;;;10.20;99.90;;;;;;5010381;28;20072;-60
2023/12/28 01:56:04;;;;;;;2.85;1.25;;;10.20;99.90;;;;;;5007714;28;20125;-60
2023/12/28 01:58:33;;;;;;;1.88;0.95;;;10.20;99.90;;;;;;5010958;28;20508;-60
2023/12/28 02:00:59;;;;;;;3.10;1.25;;;10.20;99.90;;;;;;5010178;28;20117;-59
2023/12/28 02:03:25;;;;;;;4.63;0.70;;;10.20;99.90;;;;;;5010253;28;20097;-60
2023/12/28 02:05:51;;;;;;;3.65;0.80;;;10.30;99.90;;;;;;5010841;28;20092;-58
2023/12/28 02:08:17;;;;;;;2.53;1.20;;;10.20;99.90;;;;;;5011325;28;20018;-60
2023/12/28 02:10:43;;;;;;;2.00;1.02;;;10.20;99.90;;;;;;5009781;28;20570;-60
2023/12/28 02:13:09;;;;;;;1.20;0.90;;;10.30;99.90;;;;;;5011758;28;20096;-61
2023/12/28 02:15:34;;;;;;;1.10;0.77;;;10.20;99.90;;;;;;5010312;28;20030;-61
2023/12/28 02:18:12;;;;;;;1.05;0.90;;;10.30;99.90;;;;;;5011429;28;20033;-60
2023/12/28 02:20:39;;;;;;;0.77;0.77;;;10.20;99.90;;;;;;5010502;28;20038;-60
2023/12/28 02:23:05;;;;;;;1.10;0.98;;;10.20;99.90;;;;;;5011153;28;20108;-60
2023/12/28 02:25:31;;;;;;;0.80;0.75;;;10.20;99.90;;;;;;5010603;28;20045;-61
2023/12/28 02:27:57;;;;;;;0.80;0.80;;;10.10;99.90;;;;;;5010214;28;20053;-62
2023/12/28 02:30:24;;;;;;;1.65;1.15;;;10.10;99.90;;;;;;5011203;28;20026;-60
2023/12/28 02:32:54;;;;;;;5.03;1.00;;;10.10;99.90;;;;;;5010354;28;20113;-59
2023/12/28 02:35:29;;;;;;;2.10;0.90;;;10.10;99.90;;;;;;5009994;28;20029;-60
2023/12/28 02:37:59;;;;;;;0.73;0.70;;;10.10;99.90;;;;;;5008363;28;20116;-61
2023/12/28 02:40:26;;;;;;;1.90;1.13;;;10.10;99.90;;;;;;5010488;28;20018;-60
2023/12/28 02:42:52;;;;;;;1.00;0.77;;;10.10;99.90;;;;;;5010424;28;20021;-59
2023/12/28 02:45:18;;;;;;;1.45;0.93;;;10.10;99.90;;;;;;5010838;28;20568;-58
2023/12/28 02:47:44;;;;;;;1.02;0.80;;;10.10;99.90;;;;;;5010351;28;20105;-60
2023/12/28 02:50:09;;;;;;;0.70;0.70;;;10.20;99.90;;;;;;5009618;28;20028;-60
2023/12/28 02:52:35;;;;;;;0.93;0.80;;;10.10;99.90;;;;;;5009625;28;20451;-58
2023/12/28 02:55:00;;;;;;;3.40;1.05;;;10.20;99.90;;;;;;5011187;28;20026;-59
2023/12/28 02:57:26;;;;;;;1.20;0.82;;;10.10;99.90;;;;;;5010073;28;20563;-56
2023/12/28 02:59:51;;;;;;;1.58;0.93;;;10.10;99.90;;;;;;5010531;28;20057;-59
2023/12/28 03:02:17;;;;;;;3.03;1.27;;;10.10;99.90;;;;;;5010321;28;20121;-59
2023/12/28 03:04:42;;;;;;;2.00;1.23;;;10.10;99.90;;;;;;5009984;28;20033;-57
2023/12/28 03:07:08;;;;;;;4.18;1.17;;;10.10;99.90;;;;;;5010457;28;20480;-59
2023/12/28 03:09:34;;;;;;;2.05;1.10;;;10.10;99.90;;;;;;5010399;28;20029;-60
2023/12/28 03:12:00;;;;;;;4.47;1.33;;;10.10;99.90;;;;;;5009477;28;20022;-59
2023/12/28 03:14:26;;;;;;;2.45;1.55;;;10.00;99.90;;;;;;5010247;28;20025;-56
2023/12/28 03:16:51;;;;;;;1.48;1.02;;;10.00;99.90;;;;;;5011547;28;20025;-59
2023/12/28 03:19:17;;;;;;;2.17;1.25;;;10.00;99.90;;;;;;5008925;28;20065;-60
2023/12/28 03:21:43;;;;;;;2.20;1.10;;;9.90;99.90;;;;;;5009451;28;20037;-60
2023/12/28 03:24:08;;;;;;;8.05;1.70;;;9.90;99.90;;;;;;5010452;28;20022;-60
2023/12/28 03:26:38;;;;;;;2.45;1.48;;;9.90;99.90;;;;;;5010395;28;20043;-59
2023/12/28 03:29:05;;;;;;;2.40;1.58;;;9.90;99.90;;;;;;5009626;28;20388;-60
2023/12/28 03:31:31;;;;;;;3.85;1.30;;;9.90;99.90;;;;;;5008834;28;20484;-61
2023/12/28 03:33:56;;;;;;;2.22;1.45;;;9.80;99.90;;;;;;5010229;28;20056;-60
2023/12/28 03:36:23;;;;;;;2.13;1.55;;;9.80;99.90;;;;;;5010187;28;20028;-60
2023/12/28 03:38:48;;;;;;;5.10;1.83;;;9.80;99.90;;;;;;5002630;28;20025;-60
2023/12/28 03:41:18;;;;;;;2.72;1.58;;;9.80;99.90;;;;;;5008787;28;20026;-60
2023/12/28 03:43:44;;;;;;;2.30;1.25;;;9.80;99.90;;;;;;5005133;28;20018;-59
2023/12/28 03:46:10;;;;;;;3.03;1.40;;;9.70;99.90;;;;;;5009901;28;20044;-60
2023/12/28 03:48:36;;;;;;;1.52;1.02;;;9.70;99.90;;;;;;5006851;28;20025;-61
2023/12/28 03:51:02;;;;;;;2.88;1.70;;;9.60;99.90;;;;;;5004989;28;20022;-60
2023/12/28 03:53:28;;;;;;;2.00;1.02;;;9.60;99.90;;;;;;5008601;28;20101;-59
2023/12/28 03:55:53;;;;;;;2.70;1.20;;;9.50;99.90;;;;;;5010088;28;20104;-61
2023/12/28 03:58:19;;;;;;;3.53;1.25;;;9.40;99.90;;;;;;5005063;28;20373;-60
2023/12/28 04:00:44;;;;;;;3.30;1.42;;;9.40;99.90;;;;;;5004347;28;20037;-60
2023/12/28 04:03:10;;;;;;;3.47;1.38;;;9.30;99.90;;;;;;5009272;28;20041;-61
2023/12/28 04:05:35;;;;;;;1.10;0.93;;;9.30;99.90;;;;;;5009383;28;20097;-59
2023/12/28 04:08:01;;;;;;;2.90;1.40;;;9.20;99.90;;;;;;5010319;28;20025;-58
2023/12/28 04:10:32;;;;;;;2.28;1.48;;;9.20;99.90;;;;;;5004901;28;20018;-60
2023/12/28 04:12:58;;;;;;;2.67;1.40;;;9.20;99.90;;;;;;5009206;28;20040;-60
2023/12/28 04:15:25;;;;;;;4.80;1.77;;;9.20;99.90;;;;;;5010168;28;20022;-59
2023/12/28 04:17:50;;;;;;;2.45;1.48;;;9.20;99.90;;;;;;5009565;28;20060;-59
2023/12/28 04:20:16;;;;;;;2.60;1.73;;;9.20;99.90;;;;;;5010127;28;20058;-60
2023/12/28 04:22:45;;;;;;;2.95;1.63;;;9.10;99.90;;;;;;5007768;28;20052;-58
2023/12/28 04:25:12;;;;;;;6.20;1.67;;;9.10;99.90;;;;;;5005631;28;20050;-59
2023/12/28 04:27:38;;;;;;;4.32;1.17;;;9.10;99.90;;;;;;5012845;28;20030;-62
2023/12/28 04:30:05;;;;;;;4.97;1.92;;;9.20;99.90;;;;;;5012956;28;20053;-61
2023/12/28 04:32:31;;;;;;;3.35;1.30;;;9.20;99.90;;;;;;5009793;28;20026;-59
2023/12/28 04:34:57;;;;;;;3.47;1.70;;;9.20;99.90;;;;;;5002421;28;20452;-60
2023/12/28 04:37:22;;;;;;;3.00;1.90;;;9.20;99.90;;;;;;5013889;28;20017;-61
2023/12/28 04:39:48;;;;;;;5.15;1.58;;;9.20;99.90;;;;;;5007924;28;20510;-60
2023/12/28 04:42:13;;;;;;;6.60;1.92;;;9.20;99.90;;;;;;5005979;28;20037;-60
2023/12/28 04:44:39;;;;;;;2.83;1.70;;;9.20;99.90;;;;;;5012364;28;20030;-60
2023/12/28 04:47:05;;;;;;;3.47;1.77;;;9.20;99.90;;;;;;5009796;28;20452;-60
2023/12/28 04:49:30;;;;;;;1.88;1.50;;;9.10;99.90;;;;;;5005757;28;20105;-61
2023/12/28 04:51:56;;;;;;;4.82;1.95;;;9.10;99.90;;;;;;5012723;28;20462;-57
2023/12/28 04:54:22;;;;;;;3.40;1.75;;;9.10;99.90;;;;;;5010575;28;20059;-58
2023/12/28 04:56:48;;;;;;;2.97;1.80;;;9.10;99.90;;;;;;5009486;28;20022;-57
2023/12/28 04:59:13;;;;;;;3.83;1.80;;;9.00;99.90;;;;;;5011286;28;20029;-61
2023/12/28 05:01:43;;;;;;;4.57;1.85;;;9.00;99.90;;;;;;5011652;28;20713;-61
2023/12/28 05:04:09;;;;;;;5.45;1.80;;;8.90;99.90;;;;;;5012947;28;20021;-60
2023/12/28 05:06:34;;;;;;;4.78;2.15;;;8.90;99.90;;;;;;5012918;28;20037;-59
2023/12/28 05:09:00;;;;;;;3.80;2.15;;;8.90;99.90;;;;;;5012699;28;20033;-59
2023/12/28 05:11:26;;;;;;;2.83;1.63;;;8.80;99.90;;;;;;5001049;28;20014;-60
2023/12/28 05:13:52;;;;;;;2.05;1.58;;;8.80;99.90;;;;;;5006165;28;20037;-61
2023/12/28 05:16:17;;;;;;;4.88;2.17;;;8.80;99.90;;;;;;5012400;28;20026;-60
2023/12/28 05:18:43;;;;;;;6.18;1.90;;;8.70;99.90;;;;;;5008363;28;20030;-60
2023/12/28 05:21:08;;;;;;;3.95;2.17;;;8.70;99.90;;;;;;5012551;28;20373;-60
2023/12/28 05:23:34;;;;;;;3.28;1.80;;;8.70;99.90;;;;;;5011650;28;20053;-61
2023/12/28 05:25:59;;;;;;;5.53;2.00;;;8.60;99.90;;;;;;5007281;28;20036;-61
2023/12/28 05:28:25;;;;;;;5.65;1.75;;;8.60;99.90;;;;;;5012397;28;20028;-61
2023/12/28 05:30:50;;;;;;;4.22;1.70;;;8.60;99.90;;;;;;4998677;28;20026;-61
2023/12/28 05:33:17;;;;;;;4.47;1.70;;;8.60;99.90;;;;;;5010991;28;20091;-60
2023/12/28 05:35:42;;;;;;;2.70;1.88;;;8.60;99.90;;;;;;5009063;28;20108;-61
2023/12/28 05:38:08;;;;;;;5.25;1.90;;;8.60;99.90;;;;;;5011192;28;20018;-60
2023/12/28 05:40:33;;;;;;;7.20;2.05;;;8.60;99.90;;;;;;5006000;28;20469;-60
2023/12/28 05:42:59;;;;;;;7.57;2.35;;;8.50;99.90;;;;;;5011712;28;20022;-61
2023/12/28 05:45:24;;;;;;;8.90;2.25;;;8.50;99.90;;;;;;5005330;28;20036;-60
2023/12/28 05:47:50;;;;;;;4.22;2.00;;;8.60;99.90;;;;;;5008558;28;20022;-59
2023/12/28 05:50:15;;;;;;;5.03;1.77;;;8.50;99.90;;;;;;5007010;28;20076;-60
2023/12/28 05:52:41;;;;;;;6.88;2.08;;;8.50;99.90;;;;;;5007250;28;20038;-60
2023/12/28 05:55:07;;;;;;;4.15;1.80;;;8.50;99.90;;;;;;5002870;28;20022;-59
2023/12/28 05:57:33;;;;;;;4.40;2.10;;;8.60;99.90;;;;;;5011625;28;20069;-59
2023/12/28 05:59:58;;;;;;;2.50;2.00;;;8.50;99.90;;;;;;5010437;28;20484;-62
2023/12/28 06:02:24;;;;;;;4.35;1.80;;;8.50;99.90;;;;;;5005032;28;20104;-61
2023/12/28 06:04:49;;;;;;;4.38;1.70;;;8.50;99.90;;;;;;5006134;28;20018;-60
2023/12/28 06:07:15;;;;;;;5.28;1.67;;;8.50;99.90;;;;;;5011207;28;20029;-61
2023/12/28 06:09:41;;;;;;;3.25;1.70;;;8.50;99.90;;;;;;5011066;28;20029;-59
2023/12/28 06:12:06;;;;;;;4.68;1.88;;;8.50;99.90;;;;;;5005516;28;20022;-61
2023/12/28 06:14:32;;;;;;;6.40;1.85;;;8.50;99.90;;;;;;5005138;28;20034;-60
2023/12/28 06:16:57;;;;;;;7.05;1.90;;;8.50;99.90;;;;;;5006066;28;20416;-60
2023/12/28 06:19:23;;;;;;;2.67;1.75;;;8.50;99.90;;;;;;5009634;28;20506;-60
2023/12/28 06:21:49;;;;;;;8.35;2.90;;;8.50;99.90;;;;;;5011041;28;20100;-61
2023/12/28 06:24:15;;;;;;;3.38;2.05;;;8.50;99.90;;;;;;5011405;28;20442;-58
2023/12/28 06:26:44;;;;;;;8.90;2.15;;;8.50;99.90;;;;;;5011192;28;20026;-60
2023/12/28 06:29:10;;;;;;;4.13;1.88;;;8.60;99.90;;;;;;5006644;28;20052;-60
2023/12/28 06:31:36;;;;;;;9.80;2.55;;;8.60;99.90;;;;;;5004310;28;20176;-61
2023/12/28 06:34:03;;;;;;;3.55;1.50;;;8.60;99.90;;;;;;5007683;28;20167;-60
2023/12/28 06:36:29;;;;;;;7.65;2.17;;;8.60;99.90;;;;;;5004615;28;20024;-59
2023/12/28 06:38:55;;;;;;;6.40;2.20;;;8.60;99.90;;;;;;5010866;28;20022;-60
2023/12/28 06:41:20;;;;;;;2.53;1.63;;;8.60;99.90;;;;;;5010961;28;20034;-62
2023/12/28 06:43:46;;;;;;;8.02;1.98;;;8.60;99.90;;;;;;5009163;28;20034;-62
2023/12/28 06:46:11;;;;;;;2.60;1.63;;;8.60;99.90;;;;;;5000932;28;20046;-60
2023/12/28 06:48:40;;;;;;;6.65;2.10;;;8.60;99.90;;;;;;5010849;28;20064;-60
2023/12/28 06:51:08;;;;;;;4.05;1.85;;;8.60;99.90;;;;;;5008440;28;20055;-61
2023/12/28 06:53:34;;;;;;;3.58;1.92;;;8.60;99.90;;;;;;5005061;28;20029;-58
2023/12/28 06:55:59;;;;;;;5.47;1.55;;;8.70;99.90;;;;;;5010887;28;20100;-62
2023/12/28 06:58:25;;;;;;;4.63;1.48;;;8.70;99.90;;;;;;5010379;28;20055;-61
2023/12/28 07:00:50;;;;;;;5.53;2.05;;;8.70;99.90;;;;;;4997410;28;20500;-59
2023/12/28 07:03:16;;;;;;;3.92;1.67;;;8.60;99.90;;;;;;5010003;28;20018;-61
2023/12/28 07:05:42;;;;;;;7.82;1.92;;;8.60;99.90;;;;;;5010409;28;20081;-60
2023/12/28 07:08:08;;;;;;;7.00;1.60;;;8.60;99.90;;;;;;5010528;28;20037;-61
2023/12/28 07:10:34;;;;;;;3.85;1.98;;;8.70;99.90;;;;;;5010598;28;20388;-60
2023/12/28 07:12:59;;;;;;;2.00;1.55;;;8.70;99.90;;;;;;5006043;28;20034;-60
2023/12/28 07:15:25;;;;;;;6.05;2.38;;;8.70;99.90;;;;;;4982135;28;20029;-62
2023/12/28 07:17:50;;;;;;;6.70;2.28;;;8.70;99.90;;;;;;5010619;28;20092;-60
2023/12/28 07:20:16;;;;;;;7.38;2.30;;;8.80;99.90;;;;;;5010081;28;20558;-60
2023/12/28 07:22:41;;;;;;;6.35;1.92;;;8.80;99.90;;;;;;5009848;28;20488;-57
2023/12/28 07:25:07;;;;;;;6.50;2.17;;;8.80;99.90;;;;;;5010374;28;20022;-60
2023/12/28 07:27:34;;;;;;;7.35;1.83;;;8.80;99.90;;;;;;5006678;28;20037;-61
2023/12/28 07:30:00;;;;;;;7.38;2.25;;;8.80;99.90;;;;;;5004589;28;20018;-60
2023/12/28 07:32:28;;;;;;;4.43;2.10;;;8.80;99.90;;;;;;5006566;28;20097;-61
2023/12/28 07:34:54;;;;;;;5.97;2.13;;;8.80;99.90;;;;;;5010138;28;20058;-60
2023/12/28 07:37:19;;;;;;;12.23;1.90;;;8.70;99.90;;;;;;5010436;28;20057;-61
2023/12/28 07:39:45;;;;;;;12.65;3.55;;;8.70;99.90;;;;;;5007131;28;20060;-62
2023/12/28 07:42:11;;;;;;;10.40;2.30;;;8.70;99.90;;;;;;5009376;28;20033;-61
2023/12/28 07:44:36;;;;;;;6.20;2.05;;;8.70;99.90;;;;;;5010037;28;20022;-59
2023/12/28 07:47:02;;;;;;;10.93;2.03;;;8.70;99.90;;;;;;5004085;28;20018;-61
2023/12/28 07:49:30;;;;;;;10.73;2.35;;;8.60;99.90;;;;;;4990393;28;20337;-61
2023/12/28 07:51:56;;;;;;;2.97;1.73;;;8.60;99.90;;;;;;5007768;28;20176;-61
2023/12/28 07:54:22;;;;;;;2.78;1.67;;;8.70;99.90;;;;;;5008294;28;20053;-61
2023/12/28 07:56:47;;;;;;;7.30;2.25;;;8.60;99.90;;;;;;5008926;28;20473;-61
2023/12/28 07:59:13;;;;;;;7.57;1.80;;;8.70;99.90;;;;;;5009546;28;20033;-61
2023/12/28 08:01:38;;;;;;;5.20;1.67;;;8.70;99.90;;;;;;5004550;28;20034;-62
2023/12/28 08:04:04;;;;;;;7.65;1.70;;;8.70;99.90;;;;;;5009166;28;20084;-59
2023/12/28 08:06:32;;;;;;;5.25;1.92;;;8.70;99.90;;;;;;5005432;28;20064;-61
2023/12/28 08:09:00;;;;;;;9.43;1.92;;;8.80;99.90;;;;;;5007840;28;20018;-62
2023/12/28 08:11:29;;;;;;;5.63;1.75;;;8.80;99.90;;;;;;5003163;28;20392;-60
2023/12/28 08:13:54;;;;;;;8.63;2.10;;;8.80;99.90;;;;;;5008487;28;20125;-57
2023/12/28 08:16:20;;;;;;;4.75;1.67;;;8.80;99.90;;;;;;5008154;28;20105;-61
2023/12/28 08:18:45;;;;;;;3.25;1.90;;;8.80;99.90;;;;;;5008713;28;20427;-62
2023/12/28 08:21:11;;;;;;;4.68;1.75;;;8.70;99.90;;;;;;5009710;28;20037;-60
2023/12/28 08:23:36;;;;;;;7.13;2.42;;;8.80;99.90;;;;;;5009205;28;20032;-62
2023/12/28 08:26:02;;;;;;;8.60;2.20;;;8.80;99.90;;;;;;5004010;28;20022;-61
2023/12/28 08:28:28;;;;;;;5.57;2.15;;;8.80;99.90;;;;;;5008571;28;20026;-60
2023/12/28 08:30:55;;;;;;;3.25;2.00;;;8.90;99.90;;;;;;5008912;28;20033;-62
2023/12/28 08:33:21;;;;;;;10.10;1.70;;;8.90;99.90;;;;;;5008171;28;20034;-60
2023/12/28 08:35:46;;;;;;;6.65;1.42;;;9.00;99.90;;;;;;5007268;28;20052;-61
2023/12/28 08:38:12;;;;;;;5.50;1.70;;;9.00;99.90;;;;;;5009932;28;20029;-58
2023/12/28 08:40:38;;;;;;;7.60;1.95;;;9.10;99.90;;;;;;5005625;28;20030;-60
2023/12/28 08:43:03;;;;;;;4.82;1.65;;;9.20;99.90;;;;;;5006358;28;20128;-62
2023/12/28 08:45:29;;;;;;;5.95;1.60;;;9.20;99.90;;;;;;5004794;28;20018;-62
2023/12/28 08:47:54;;;;;;;5.40;1.70;;;9.30;99.90;;;;;;5008856;28;20484;-60
2023/12/28 08:50:20;;;;;;;5.65;1.80;;;9.30;99.90;;;;;;5009768;28;20021;-60
2023/12/28 08:52:45;;;;;;;9.75;1.90;;;9.40;99.90;;;;;;5007067;28;20038;-61
2023/12/28 08:55:11;;;;;;;5.63;1.60;;;9.40;99.90;;;;;;5003517;28;20391;-58
2023/12/28 08:57:37;;;;;;;3.70;1.60;;;9.50;99.90;;;;;;5008157;28;20125;-62
2023/12/28 09:00:05;;;;;;;4.93;1.75;;;9.50;99.90;;;;;;5007716;28;20119;-60
2023/12/28 09:02:31;;;;;;;10.63;1.80;;;9.60;99.90;;;;;;5008876;28;20034;-61
2023/12/28 09:04:58;;;;;;;5.53;1.48;;;9.60;99.90;;;;;;5001975;28;20060;-61
2023/12/28 09:07:23;;;;;;;7.40;2.35;;;9.70;99.90;;;;;;5009262;28;20026;-61
2023/12/28 09:09:49;;;;;;;11.50;2.15;;;9.70;99.90;;;;;;5005048;28;20029;-60
2023/12/28 09:12:15;;;;;;;8.93;1.98;;;9.70;99.90;;;;;;5010580;28;20040;-61
2023/12/28 09:14:41;;;;;;;7.25;1.92;;;9.80;99.90;;;;;;5008798;28;20512;-59
2023/12/28 09:17:06;;;;;;;8.80;1.60;;;9.90;99.90;;;;;;5012606;28;20053;-59
2023/12/28 09:19:32;;;;;;;18.60;2.53;;;9.90;99.90;;;;;;5009169;28;20033;-59
2023/12/28 09:21:57;;;;;;;10.00;2.38;;;10.00;99.90;;;;;;5011461;28;20037;-60
2023/12/28 09:24:23;;;;;;;9.23;1.80;;;10.10;99.90;;;;;;5012416;28;20029;-61
2023/12/28 09:26:48;;;;;;;6.57;1.80;;;10.10;99.90;;;;;;5005855;28;20036;-62
2023/12/28 09:29:14;;;;;;;8.73;1.85;;;10.10;99.90;;;;;;5004070;28;20401;-62
2023/12/28 09:31:39;;;;;;;11.65;1.83;;;10.30;99.90;;;;;;5007791;28;20054;-59
2023/12/28 09:34:05;;;;;;;10.30;1.70;;;10.40;99.90;;;;;;5008665;28;20044;-62
2023/12/28 09:36:31;;;;;;;14.02;1.88;;;10.50;99.90;;;;;;5006753;28;20038;-60
2023/12/28 09:38:57;;;;;;;12.68;2.22;;;10.60;99.90;;;;;;5008834;28;20732;-61
2023/12/28 09:41:26;;;;;;;10.15;1.90;;;10.70;99.90;;;;;;5009697;28;20058;-60
2023/12/28 09:43:56;;;;;;;14.65;1.95;;;10.90;99.90;;;;;;4998988;28;20030;-62
2023/12/28 09:46:22;;;;;;;7.43;1.50;;;10.90;99.90;;;;;;5005759;28;20109;-62
2023/12/28 09:48:47;;;;;;;3.95;1.35;;;11.00;99.90;;;;;;5006382;28;20113;-60
2023/12/28 09:51:13;;;;;;;5.45;1.40;;;11.10;99.90;;;;;;5011328;28;20022;-61
2023/12/28 09:53:39;;;;;;;3.63;1.48;;;11.30;99.90;;;;;;5009632;28;20096;-61
2023/12/28 09:56:05;;;;;;;8.57;1.70;;;11.40;99.90;;;;;;5007173;28;20037;-60
2023/12/28 09:58:33;;;;;;;5.13;1.60;;;11.50;99.90;;;;;;5007216;28;20026;-61
2023/12/28 10:01:00;;;;;;;6.80;1.30;;;11.60;99.90;;;;;;5007207;28;20088;-61
2023/12/28 10:03:25;;;;;;;8.40;1.40;;;11.70;99.90;;;;;;4999393;28;20053;-58
2023/12/28 10:05:51;;;;;;;10.93;1.80;;;11.90;99.90;;;;;;5005391;28;20492;-61
2023/12/28 10:08:17;;;;;;;8.07;1.40;;;12.00;99.90;;;;;;5006541;28;20026;-60
2023/12/28 10:10:43;;;;;;;5.68;2.00;;;12.10;99.90;;;;;;5008001;28;20116;-59
2023/12/28 10:13:10;;;;;;;8.35;1.75;;;12.20;99.90;;;;;;5002793;28;20117;-61
2023/12/28 10:15:37;;;;;;;7.22;2.80;;;12.20;99.90;;;;;;5001158;28;20026;-61
2023/12/28 10:18:04;;;;;;;12.15;2.13;;;12.30;99.90;;;;;;5009251;28;20058;-61
2023/12/28 10:20:30;;;;;;;8.25;1.92;;;12.40;99.90;;;;;;5008767;28;20022;-61
2023/12/28 10:22:57;;;;;;;7.35;1.70;;;12.50;99.90;;;;;;4990916;28;20525;-61
2023/12/28 10:25:23;;;;;;;7.65;1.80;;;12.50;99.90;;;;;;5003566;28;20781;-61
2023/12/28 10:27:53;;;;;;;8.10;1.60;;;12.50;99.90;;;;;;5006187;28;20017;-58
2023/12/28 10:30:20;;;;;;;6.90;1.50;;;12.60;99.90;;;;;;5000777;28;20026;-59
2023/12/28 10:32:46;;;;;;;11.15;1.70;;;12.50;99.90;;;;;;5007055;28;20157;-61
2023/12/28 10:35:11;;;;;;;12.23;2.17;;;12.50;99.90;;;;;;5005754;28;20152;-60
2023/12/28 10:37:41;;;;;;;7.43;1.50;;;12.60;99.90;;;;;;5009957;28;20038;-60
2023/12/28 10:40:10;;;;;;;10.90;1.90;;;12.50;99.90;;;;;;5005491;28;20052;-60
2023/12/28 10:42:46;;;;;;;12.63;1.98;;;12.60;99.90;;;;;;5006195;28;20065;-60
2023/12/28 10:45:13;;;;;;;8.73;1.73;;;12.60;99.90;;;;;;5008782;28;20388;-59
2023/12/28 10:47:43;;;;;;;8.75;1.50;;;12.70;99.90;;;;;;5008841;28;20032;-59
2023/12/28 10:50:11;;;;;;;12.40;1.95;;;12.70;99.90;;;;;;5005222;28;20125;-61
2023/12/28 10:52:38;;;;;;;11.55;1.65;;;12.70;99.90;;;;;;5004876;28;20038;-60
2023/12/28 10:55:37;;;;;;;6.85;1.58;;;12.70;99.90;;;;;;5008614;28;20534;-60
2023/12/28 10:58:19;;;;;;;8.23;1.63;;;12.70;99.90;;;;;;5007574;28;20026;-60
2023/12/28 11:00:52;;;;;;;4.72;1.33;;;12.70;99.90;;;;;;5008175;28;20029;-58
2023/12/28 11:03:23;;;;;;;11.20;1.85;;;12.80;99.90;;;;;;5006076;28;20026;-62
2023/12/28 11:05:50;;;;;;;11.93;2.28;;;12.80;99.90;;;;;;5010822;28;20100;-60
2023/12/28 11:08:18;;;;;;;5.90;1.50;;;12.90;99.90;;;;;;5010964;28;20093;-61
2023/12/28 11:10:44;;;;;;;7.90;1.88;;;12.90;99.90;;;;;;5008350;28;20030;-62
2023/12/28 11:13:10;;;;;;;10.48;1.88;;;13.00;99.90;;;;;;5005744;28;20018;-61
2023/12/28 11:15:37;;;;;;;15.85;2.13;;;13.00;99.90;;;;;;5005699;28;20030;-61
2023/12/28 11:18:03;;;;;;;7.28;2.20;;;13.00;99.90;;;;;;5005666;28;20068;-60
2023/12/28 11:20:29;;;;;;;3.35;1.30;;;13.20;99.90;;;;;;5003961;28;20084;-61
2023/12/28 11:22:56;;;;;;;9.63;1.50;;;13.20;99.90;;;;;;5006861;28;20034;-62
2023/12/28 11:25:22;;;;;;;8.63;1.63;;;13.40;99.90;;;;;;5008063;28;20026;-60
2023/12/28 11:27:48;;;;;;;11.50;1.75;;;13.20;99.90;;;;;;5005661;28;20040;-60
2023/12/28 11:30:13;;;;;;;6.15;1.55;;;13.10;99.90;;;;;;5004112;28;20488;-61
2023/12/28 11:32:43;;;;;;;8.10;1.20;;;13.30;99.90;;;;;;5008611;28;20053;-61
2023/12/28 11:35:14;;;;;;;5.57;1.42;;;13.30;99.90;;;;;;5003390;28;20029;-61
2023/12/28 11:37:42;;;;;;;9.18;1.63;;;13.30;99.90;;;;;;5007257;28;20484;-60
2023/12/28 11:40:14;;;;;;;6.95;1.45;;;13.40;99.90;;;;;;5006685;28;20400;-60
2023/12/28 11:42:54;;;;;;;14.40;2.30;;;13.30;99.90;;;;;;5006864;28;20030;-61
2023/12/28 11:45:21;;;;;;;6.60;1.40;;;13.30;99.90;;;;;;5001705;28;20022;-59
2023/12/28 11:47:47;;;;;;;10.25;1.38;;;13.30;99.90;;;;;;5001427;28;20037;-61
2023/12/28 11:50:14;;;;;;;3.72;1.40;;;13.40;99.90;;;;;;5005933;28;20392;-62
2023/12/28 11:52:40;;;;;;;5.97;1.65;;;13.50;99.90;;;;;;5001481;28;20068;-60
2023/12/28 11:55:05;;;;;;;9.13;1.63;;;13.60;99.90;;;;;;5002413;28;20021;-61
2023/12/28 11:57:34;;;;;;;8.43;1.52;;;13.50;99.90;;;;;;5001023;28;20493;-60
2023/12/28 12:00:04;;;;;;;11.05;2.20;;;13.50;99.90;;;;;;5007360;28;20030;-59
2023/12/28 12:02:29;;;;;;;4.88;1.38;;;13.40;99.90;;;;;;5002383;28;20108;-61
2023/12/28 12:04:57;;;;;;;7.03;1.63;;;13.50;99.90;;;;;;5000226;28;20101;-60
2023/12/28 12:07:25;;;;;;;13.73;1.90;;;13.60;99.90;;;;;;5001022;28;20502;-60
2023/12/28 12:09:55;;;;;;;7.25;1.70;;;13.50;99.90;;;;;;5001630;28;20030;-60
2023/12/28 12:12:21;;;;;;;9.68;1.90;;;13.60;99.90;;;;;;5003191;28;20148;-61
2023/12/28 12:14:46;;;;;;;9.98;1.85;;;13.50;99.90;;;;;;5006647;28;20455;-61
2023/12/28 12:17:12;;;;;;;5.97;1.60;;;13.60;99.90;;;;;;5003418;28;20033;-59
2023/12/28 12:19:38;;;;;;;6.90;1.58;;;13.50;99.90;;;;;;5007393;28;20512;-60
2023/12/28 12:22:03;;;;;;;5.53;1.90;;;13.40;99.90;;;;;;5008118;28;20033;-62
2023/12/28 12:24:31;;;;;;;8.80;1.50;;;13.50;99.90;;;;;;5008072;28;20034;-61
2023/12/28 12:26:56;;;;;;;17.85;1.80;;;13.50;99.90;;;;;;5005743;28;20030;-62
2023/12/28 12:29:22;;;;;;;11.38;1.77;;;13.50;99.90;;;;;;5007730;28;20461;-61
2023/12/28 12:31:48;;;;;;;5.75;1.58;;;13.70;99.90;;;;;;5003942;28;20030;-60
2023/12/28 12:34:17;;;;;;;8.75;1.40;;;13.60;99.90;;;;;;5007479;28;20103;-62
2023/12/28 12:36:43;;;;;;;11.55;2.67;;;13.80;99.90;;;;;;5005333;28;20026;-61
2023/12/28 12:39:12;;;;;;;10.88;1.83;;;13.80;99.90;;;;;;5003956;28;20080;-60
2023/12/28 12:41:38;;;;;;;11.13;1.60;;;13.90;99.90;;;;;;4985429;28;20048;-61
2023/12/28 12:44:04;;;;;;;9.20;2.00;;;14.00;99.90;;;;;;5006311;28;20524;-60
2023/12/28 12:46:30;;;;;;;10.90;1.70;;;14.00;99.90;;;;;;5009605;28;20037;-60